sensor_id;sensor_type;location;lat;lon;timestamp;pressure;altitude;pressure_sealevel;temperature;humidity
67840;BME280;54636;51.684;5.142;2023-06-24T00:01:20;102457.88;;;18.16;100.00
67840;BME280;54636;51.684;5.142;2023-06-24T00:03:45;102447.81;;;18.02;100.00
67840;BME280;54636;51.684;5.142;2023-06-24T00:06:12;102464.84;;;18.06;100.00
67840;BME280;54636;51.684;5.142;2023-06-24T00:08:52;102468.09;;;18.04;100.00
67840;BME280;54636;51.684;5.142;2023-06-24T00:11:25;102460.56;;;17.99;100.00
67840;BME280;54636;51.684;5.142;2023-06-24T00:13:51;102464.28;;;17.96;100.00
67840;BME280;54636;51.684;5.142;2023-06-24T00:16:16;102474.00;;;17.92;100.00
67840;BME280;54636;51.684;5.142;2023-06-24T00:18:41;102458.97;;;17.82;100.00
67840;BME280;54636;51.684;5.142;2023-06-24T00:21:08;102468.47;;;17.86;100.00
67840;BME280;54636;51.684;5.142;2023-06-24T00:23:33;102452.91;;;17.72;100.00
67840;BME280;54636;51.684;5.142;2023-06-24T00:26:01;102453.63;;;17.67;100.00
67840;BME280;54636;51.684;5.142;2023-06-24T00:28:27;102469.66;;;17.74;100.00
67840;BME280;54636;51.684;5.142;2023-06-24T00:30:53;102454.03;;;17.60;100.00
67840;BME280;54636;51.684;5.142;2023-06-24T00:33:19;102477.09;;;17.68;100.00
67840;BME280;54636;51.684;5.142;2023-06-24T00:35:45;102469.50;;;17.57;100.00
67840;BME280;54636;51.684;5.142;2023-06-24T00:38:11;102473.28;;;17.54;100.00
67840;BME280;54636;51.684;5.142;2023-06-24T00:40:37;102475.94;;;17.43;100.00
67840;BME280;54636;51.684;5.142;2023-06-24T00:43:04;102476.38;;;17.36;100.00
67840;BME280;54636;51.684;5.142;2023-06-24T00:45:30;102477.63;;;17.35;100.00
67840;BME280;54636;51.684;5.142;2023-06-24T00:47:57;102468.56;;;17.29;100.00
67840;BME280;54636;51.684;5.142;2023-06-24T00:50:23;102469.00;;;17.22;100.00
67840;BME280;54636;51.684;5.142;2023-06-24T00:52:48;102468.00;;;17.19;100.00
67840;BME280;54636;51.684;5.142;2023-06-24T00:55:15;102476.44;;;17.16;100.00
67840;BME280;54636;51.684;5.142;2023-06-24T00:57:43;102473.38;;;17.08;100.00
67840;BME280;54636;51.684;5.142;2023-06-24T01:00:09;102462.50;;;16.93;100.00
67840;BME280;54636;51.684;5.142;2023-06-24T01:02:40;102458.00;;;16.90;100.00
67840;BME280;54636;51.684;5.142;2023-06-24T01:05:09;102464.47;;;16.87;100.00
67840;BME280;54636;51.684;5.142;2023-06-24T01:07:37;102472.22;;;16.89;100.00
67840;BME280;54636;51.684;5.142;2023-06-24T01:10:03;102459.41;;;16.80;100.00
67840;BME280;54636;51.684;5.142;2023-06-24T01:12:37;102462.38;;;16.76;100.00
67840;BME280;54636;51.684;5.142;2023-06-24T01:15:09;102471.91;;;16.81;100.00
67840;BME280;54636;51.684;5.142;2023-06-24T01:31:59;102456.34;;;16.52;100.00
67840;BME280;54636;51.684;5.142;2023-06-24T01:34:42;102447.03;;;16.44;100.00
67840;BME280;54636;51.684;5.142;2023-06-24T01:37:55;102456.97;;;16.41;100.00
67840;BME280;54636;51.684;5.142;2023-06-24T01:40:02;102433.59;;;16.26;100.00
67840;BME280;54636;51.684;5.142;2023-06-24T01:42:41;102438.84;;;16.24;100.00
67840;BME280;54636;51.684;5.142;2023-06-24T01:45:10;102432.81;;;16.20;100.00
67840;BME280;54636;51.684;5.142;2023-06-24T01:47:38;102428.78;;;16.15;100.00
67840;BME280;54636;51.684;5.142;2023-06-24T01:50:06;102428.00;;;16.14;100.00
67840;BME280;54636;51.684;5.142;2023-06-24T01:52:35;102416.97;;;16.09;100.00
67840;BME280;54636;51.684;5.142;2023-06-24T01:55:01;102432.75;;;16.14;100.00
67840;BME280;54636;51.684;5.142;2023-06-24T01:57:27;102432.66;;;16.08;100.00
67840;BME280;54636;51.684;5.142;2023-06-24T01:59:55;102418.81;;;15.97;100.00
67840;BME280;54636;51.684;5.142;2023-06-24T02:02:23;102426.28;;;15.97;100.00
67840;BME280;54636;51.684;5.142;2023-06-24T02:04:51;102415.72;;;15.90;100.00
67840;BME280;54636;51.684;5.142;2023-06-24T02:07:18;102420.25;;;15.93;100.00
67840;BME280;54636;51.684;5.142;2023-06-24T02:09:45;102420.66;;;15.86;100.00
67840;BME280;54636;51.684;5.142;2023-06-24T02:12:12;102422.94;;;15.87;100.00
67840;BME280;54636;51.684;5.142;2023-06-24T02:14:38;102415.66;;;15.84;100.00
67840;BME280;54636;51.684;5.142;2023-06-24T02:17:06;102425.38;;;15.85;100.00
67840;BME280;54636;51.684;5.142;2023-06-24T02:19:33;102423.31;;;15.80;100.00
67840;BME280;54636;51.684;5.142;2023-06-24T02:22:01;102414.19;;;15.68;100.00
67840;BME280;54636;51.684;5.142;2023-06-24T02:24:28;102430.25;;;15.75;100.00
67840;BME280;54636;51.684;5.142;2023-06-24T02:26:56;102442.91;;;15.73;100.00
67840;BME280;54636;51.684;5.142;2023-06-24T02:29:25;102419.13;;;15.64;100.00
67840;BME280;54636;51.684;5.142;2023-06-24T02:31:51;102425.44;;;15.70;100.00
67840;BME280;54636;51.684;5.142;2023-06-24T02:34:17;102412.13;;;15.63;100.00
67840;BME280;54636;51.684;5.142;2023-06-24T02:36:43;102427.91;;;15.68;100.00
67840;BME280;54636;51.684;5.142;2023-06-24T02:39:08;102438.28;;;15.64;100.00
67840;BME280;54636;51.684;5.142;2023-06-24T02:41:34;102420.66;;;15.51;100.00
67840;BME280;54636;51.684;5.142;2023-06-24T02:43:59;102435.97;;;15.57;100.00
67840;BME280;54636;51.684;5.142;2023-06-24T02:46:27;102423.50;;;15.41;100.00
67840;BME280;54636;51.684;5.142;2023-06-24T02:48:54;102440.41;;;15.55;100.00
67840;BME280;54636;51.684;5.142;2023-06-24T02:51:21;102438.03;;;15.47;100.00
67840;BME280;54636;51.684;5.142;2023-06-24T02:53:47;102430.22;;;15.40;100.00
67840;BME280;54636;51.684;5.142;2023-06-24T02:56:14;102420.59;;;15.30;100.00
67840;BME280;54636;51.684;5.142;2023-06-24T02:58:40;102433.34;;;15.33;100.00
67840;BME280;54636;51.684;5.142;2023-06-24T03:01:05;102434.00;;;15.28;100.00
67840;BME280;54636;51.684;5.142;2023-06-24T03:03:35;102436.84;;;15.19;100.00
67840;BME280;54636;51.684;5.142;2023-06-24T03:06:01;102416.38;;;15.00;100.00
67840;BME280;54636;51.684;5.142;2023-06-24T03:08:27;102429.00;;;15.12;100.00
67840;BME280;54636;51.684;5.142;2023-06-24T03:10:56;102429.97;;;15.09;100.00
67840;BME280;54636;51.684;5.142;2023-06-24T03:13:22;102411.78;;;14.91;100.00
67840;BME280;54636;51.684;5.142;2023-06-24T03:15:48;102424.59;;;15.00;100.00
67840;BME280;54636;51.684;5.142;2023-06-24T03:18:13;102413.94;;;14.87;100.00
67840;BME280;54636;51.684;5.142;2023-06-24T03:20:39;102432.97;;;14.96;100.00
67840;BME280;54636;51.684;5.142;2023-06-24T03:23:08;102432.44;;;14.92;100.00
67840;BME280;54636;51.684;5.142;2023-06-24T03:25:34;102427.06;;;14.83;100.00
67840;BME280;54636;51.684;5.142;2023-06-24T03:28:00;102427.53;;;14.81;100.00
67840;BME280;54636;51.684;5.142;2023-06-24T03:30:26;102440.53;;;14.87;100.00
67840;BME280;54636;51.684;5.142;2023-06-24T03:32:52;102437.53;;;14.85;100.00
67840;BME280;54636;51.684;5.142;2023-06-24T03:35:17;102437.25;;;14.82;100.00
67840;BME280;54636;51.684;5.142;2023-06-24T03:37:42;102443.00;;;14.85;100.00
67840;BME280;54636;51.684;5.142;2023-06-24T03:40:08;102442.72;;;14.82;100.00
67840;BME280;54636;51.684;5.142;2023-06-24T03:42:33;102427.31;;;14.70;100.00
67840;BME280;54636;51.684;5.142;2023-06-24T03:44:59;102447.44;;;14.82;100.00
67840;BME280;54636;51.684;5.142;2023-06-24T03:47:24;102411.75;;;14.62;100.00
67840;BME280;54636;51.684;5.142;2023-06-24T03:49:50;102444.13;;;14.78;100.00
67840;BME280;54636;51.684;5.142;2023-06-24T03:52:16;102425.41;;;14.62;100.00
67840;BME280;54636;51.684;5.142;2023-06-24T03:54:42;102409.19;;;14.58;100.00
67840;BME280;54636;51.684;5.142;2023-06-24T03:57:07;102410.59;;;14.54;100.00
67840;BME280;54636;51.684;5.142;2023-06-24T03:59:34;102424.59;;;14.70;100.00
67840;BME280;54636;51.684;5.142;2023-06-24T04:01:59;102439.41;;;14.78;100.00
67840;BME280;54636;51.684;5.142;2023-06-24T04:04:25;102416.38;;;14.70;100.00
67840;BME280;54636;51.684;5.142;2023-06-24T04:06:51;102440.44;;;14.81;100.00
67840;BME280;54636;51.684;5.142;2023-06-24T04:09:16;102427.41;;;14.76;100.00
67840;BME280;54636;51.684;5.142;2023-06-24T04:11:42;102434.31;;;14.86;100.00
67840;BME280;54636;51.684;5.142;2023-06-24T04:14:07;102436.59;;;14.88;100.00
67840;BME280;54636;51.684;5.142;2023-06-24T04:16:34;102443.66;;;14.94;100.00
67840;BME280;54636;51.684;5.142;2023-06-24T04:19:00;102432.06;;;14.85;100.00
67840;BME280;54636;51.684;5.142;2023-06-24T04:21:26;102444.22;;;14.98;100.00
67840;BME280;54636;51.684;5.142;2023-06-24T04:23:52;102447.50;;;15.17;100.00
67840;BME280;54636;51.684;5.142;2023-06-24T04:26:17;102440.25;;;15.14;100.00
67840;BME280;54636;51.684;5.142;2023-06-24T04:28:42;102455.34;;;15.24;100.00
67840;BME280;54636;51.684;5.142;2023-06-24T04:31:08;102428.91;;;15.06;100.00
67840;BME280;54636;51.684;5.142;2023-06-24T04:33:33;102451.09;;;15.23;100.00
67840;BME280;54636;51.684;5.142;2023-06-24T04:35:59;102445.63;;;15.23;100.00
67840;BME280;54636;51.684;5.142;2023-06-24T04:38:25;102435.44;;;15.24;100.00
67840;BME280;54636;51.684;5.142;2023-06-24T04:40:50;102437.03;;;15.30;100.00
67840;BME280;54636;51.684;5.142;2023-06-24T04:43:16;102461.44;;;15.63;100.00
67840;BME280;54636;51.684;5.142;2023-06-24T04:45:41;102420.16;;;15.67;100.00
67840;BME280;54636;51.684;5.142;2023-06-24T04:48:06;102443.13;;;15.90;100.00
67840;BME280;54636;51.684;5.142;2023-06-24T04:50:32;102443.75;;;15.99;100.00
67840;BME280;54636;51.684;5.142;2023-06-24T04:52:57;102459.75;;;16.21;100.00
67840;BME280;54636;51.684;5.142;2023-06-24T04:55:24;102455.28;;;16.24;100.00
67840;BME280;54636;51.684;5.142;2023-06-24T04:57:49;102462.97;;;16.20;100.00
67840;BME280;54636;51.684;5.142;2023-06-24T05:00:15;102450.91;;;16.11;100.00
67840;BME280;54636;51.684;5.142;2023-06-24T05:02:40;102448.28;;;16.02;100.00
67840;BME280;54636;51.684;5.142;2023-06-24T05:05:06;102455.91;;;16.13;100.00
67840;BME280;54636;51.684;5.142;2023-06-24T05:07:32;102445.06;;;16.04;100.00
67840;BME280;54636;51.684;5.142;2023-06-24T05:09:57;102448.16;;;16.11;100.00
67840;BME280;54636;51.684;5.142;2023-06-24T05:12:22;102450.44;;;16.13;100.00
67840;BME280;54636;51.684;5.142;2023-06-24T05:14:51;102473.97;;;16.25;100.00
67840;BME280;54636;51.684;5.142;2023-06-24T05:17:18;102472.75;;;16.26;100.00
67840;BME280;54636;51.684;5.142;2023-06-24T05:19:44;102460.28;;;16.25;100.00
67840;BME280;54636;51.684;5.142;2023-06-24T05:22:09;102463.75;;;16.26;100.00
67840;BME280;54636;51.684;5.142;2023-06-24T05:24:35;102461.09;;;16.31;100.00
67840;BME280;54636;51.684;5.142;2023-06-24T05:27:04;102458.34;;;16.31;100.00
67840;BME280;54636;51.684;5.142;2023-06-24T05:29:30;102461.72;;;16.41;100.00
67840;BME280;54636;51.684;5.142;2023-06-24T05:31:56;102438.47;;;16.36;100.00
67840;BME280;54636;51.684;5.142;2023-06-24T05:34:21;102455.06;;;16.47;100.00
67840;BME280;54636;51.684;5.142;2023-06-24T05:36:46;102442.03;;;16.42;100.00
67840;BME280;54636;51.684;5.142;2023-06-24T05:39:13;102454.91;;;16.57;100.00
67840;BME280;54636;51.684;5.142;2023-06-24T05:41:38;102457.44;;;16.60;100.00
67840;BME280;54636;51.684;5.142;2023-06-24T05:44:08;102454.97;;;16.62;100.00
67840;BME280;54636;51.684;5.142;2023-06-24T05:46:35;102460.38;;;16.77;100.00
67840;BME280;54636;51.684;5.142;2023-06-24T05:49:01;102472.72;;;17.19;100.00
67840;BME280;54636;51.684;5.142;2023-06-24T05:51:27;102474.28;;;17.62;100.00
67840;BME280;54636;51.684;5.142;2023-06-24T05:53:52;102455.78;;;17.57;98.79
67840;BME280;54636;51.684;5.142;2023-06-24T05:56:17;102469.56;;;17.63;99.28
67840;BME280;54636;51.684;5.142;2023-06-24T05:58:43;102470.22;;;17.84;98.38
67840;BME280;54636;51.684;5.142;2023-06-24T06:01:11;102459.28;;;17.95;96.23
67840;BME280;54636;51.684;5.142;2023-06-24T06:03:37;102471.13;;;18.12;93.95
67840;BME280;54636;51.684;5.142;2023-06-24T06:06:02;102460.81;;;18.01;93.67
67840;BME280;54636;51.684;5.142;2023-06-24T06:08:28;102479.31;;;18.01;94.08
67840;BME280;54636;51.684;5.142;2023-06-24T06:10:53;102466.97;;;17.85;94.78
67840;BME280;54636;51.684;5.142;2023-06-24T06:13:18;102476.72;;;17.86;94.63
67840;BME280;54636;51.684;5.142;2023-06-24T06:15:44;102462.66;;;17.73;95.17
67840;BME280;54636;51.684;5.142;2023-06-24T06:18:09;102460.88;;;17.70;94.92
67840;BME280;54636;51.684;5.142;2023-06-24T06:20:34;102471.75;;;17.90;94.61
67840;BME280;54636;51.684;5.142;2023-06-24T06:23:00;102478.31;;;18.04;94.08
67840;BME280;54636;51.684;5.142;2023-06-24T06:25:25;102473.81;;;18.01;94.54
67840;BME280;54636;51.684;5.142;2023-06-24T06:27:51;102480.06;;;18.01;94.42
67840;BME280;54636;51.684;5.142;2023-06-24T06:30:16;102485.81;;;18.03;94.89
67840;BME280;54636;51.684;5.142;2023-06-24T06:32:42;102480.09;;;18.07;95.22
67840;BME280;54636;51.684;5.142;2023-06-24T06:35:08;102472.34;;;18.05;96.43
67840;BME280;54636;51.684;5.142;2023-06-24T06:37:33;102487.91;;;18.20;94.73
67840;BME280;54636;51.684;5.142;2023-06-24T06:39:59;102477.13;;;18.22;94.16
67840;BME280;54636;51.684;5.142;2023-06-24T06:42:24;102477.94;;;18.33;94.65
67840;BME280;54636;51.684;5.142;2023-06-24T06:44:49;102473.34;;;18.90;92.20
67840;BME280;54636;51.684;5.142;2023-06-24T06:47:15;102479.66;;;20.26;87.36
67840;BME280;54636;51.684;5.142;2023-06-24T06:49:40;102484.88;;;21.48;77.94
67840;BME280;54636;51.684;5.142;2023-06-24T06:52:06;102475.97;;;22.09;73.70
67840;BME280;54636;51.684;5.142;2023-06-24T06:54:31;102485.91;;;23.38;69.11
67840;BME280;54636;51.684;5.142;2023-06-24T06:57:01;102498.59;;;24.73;64.98
67840;BME280;54636;51.684;5.142;2023-06-24T06:59:26;102497.38;;;25.44;58.86
67840;BME280;54636;51.684;5.142;2023-06-24T07:01:52;102490.44;;;25.87;57.54
67840;BME280;54636;51.684;5.142;2023-06-24T07:04:17;102508.38;;;26.58;56.06
67840;BME280;54636;51.684;5.142;2023-06-24T07:06:43;102501.75;;;27.07;53.29
67840;BME280;54636;51.684;5.142;2023-06-24T07:09:08;102501.72;;;27.52;51.58
67840;BME280;54636;51.684;5.142;2023-06-24T07:11:33;102513.78;;;27.78;49.06
67840;BME280;54636;51.684;5.142;2023-06-24T07:13:59;102507.91;;;28.06;49.80
67840;BME280;54636;51.684;5.142;2023-06-24T07:16:24;102506.09;;;28.41;47.62
67840;BME280;54636;51.684;5.142;2023-06-24T07:18:49;102507.94;;;28.46;47.24
67840;BME280;54636;51.684;5.142;2023-06-24T07:21:15;102512.94;;;28.80;46.66
67840;BME280;54636;51.684;5.142;2023-06-24T07:23:40;102521.88;;;28.87;45.54
67840;BME280;54636;51.684;5.142;2023-06-24T07:26:07;102520.97;;;28.76;44.81
67840;BME280;54636;51.684;5.142;2023-06-24T07:28:32;102509.09;;;28.68;45.63
67840;BME280;54636;51.684;5.142;2023-06-24T07:30:58;102519.47;;;28.83;46.27
67840;BME280;54636;51.684;5.142;2023-06-24T07:33:23;102497.81;;;28.59;46.25
67840;BME280;54636;51.684;5.142;2023-06-24T07:35:49;102514.66;;;28.43;47.19
67840;BME280;54636;51.684;5.142;2023-06-24T07:38:14;102511.44;;;28.07;47.40
67840;BME280;54636;51.684;5.142;2023-06-24T07:40:40;102506.72;;;27.69;48.98
67840;BME280;54636;51.684;5.142;2023-06-24T07:43:05;102517.75;;;27.29;47.88
67840;BME280;54636;51.684;5.142;2023-06-24T07:45:31;102504.28;;;26.74;50.97
67840;BME280;54636;51.684;5.142;2023-06-24T07:47:56;102502.78;;;26.14;52.47
67840;BME280;54636;51.684;5.142;2023-06-24T07:50:22;102504.59;;;25.68;54.67
67840;BME280;54636;51.684;5.142;2023-06-24T07:52:47;102501.47;;;25.22;56.95
67840;BME280;54636;51.684;5.142;2023-06-24T07:55:12;102495.47;;;24.77;58.04
67840;BME280;54636;51.684;5.142;2023-06-24T07:57:38;102494.63;;;24.48;61.17
67840;BME280;54636;51.684;5.142;2023-06-24T08:00:06;102514.53;;;24.25;61.25
67840;BME280;54636;51.684;5.142;2023-06-24T08:02:34;102501.84;;;24.04;59.41
67840;BME280;54636;51.684;5.142;2023-06-24T08:04:59;102489.59;;;23.86;61.55
67840;BME280;54636;51.684;5.142;2023-06-24T08:07:25;102479.44;;;23.62;61.25
67840;BME280;54636;51.684;5.142;2023-06-24T08:09:50;102503.47;;;23.73;60.03
67840;BME280;54636;51.684;5.142;2023-06-24T08:12:15;102505.38;;;23.78;61.70
67840;BME280;54636;51.684;5.142;2023-06-24T08:14:41;102504.41;;;23.88;62.77
67840;BME280;54636;51.684;5.142;2023-06-24T08:17:06;102492.38;;;23.86;60.28
67840;BME280;54636;51.684;5.142;2023-06-24T08:19:31;102498.44;;;23.97;60.48
67840;BME280;54636;51.684;5.142;2023-06-24T08:21:57;102499.47;;;24.08;60.53
67840;BME280;54636;51.684;5.142;2023-06-24T08:24:22;102483.91;;;24.05;60.87
67840;BME280;54636;51.684;5.142;2023-06-24T08:26:48;102492.84;;;24.24;59.88
67840;BME280;54636;51.684;5.142;2023-06-24T08:29:13;102484.41;;;24.29;58.98
67840;BME280;54636;51.684;5.142;2023-06-24T08:31:38;102483.09;;;24.44;56.85
67840;BME280;54636;51.684;5.142;2023-06-24T08:34:04;102492.91;;;24.58;54.09
67840;BME280;54636;51.684;5.142;2023-06-24T08:36:31;102476.97;;;24.58;57.16
67840;BME280;54636;51.684;5.142;2023-06-24T08:38:56;102480.69;;;24.82;57.96
67840;BME280;54636;51.684;5.142;2023-06-24T08:41:23;102487.09;;;24.90;55.54
67840;BME280;54636;51.684;5.142;2023-06-24T08:43:50;102480.75;;;25.03;56.34
67840;BME280;54636;51.684;5.142;2023-06-24T08:46:16;102475.94;;;25.03;56.41
67840;BME280;54636;51.684;5.142;2023-06-24T08:48:43;102483.91;;;25.27;53.74
67840;BME280;54636;51.684;5.142;2023-06-24T08:51:11;102467.72;;;25.18;54.22
67840;BME280;54636;51.684;5.142;2023-06-24T08:53:38;102466.88;;;25.31;55.90
67840;BME280;54636;51.684;5.142;2023-06-24T08:56:07;102483.22;;;25.35;51.84
67840;BME280;54636;51.684;5.142;2023-06-24T08:58:33;102486.97;;;25.45;53.37
67840;BME280;54636;51.684;5.142;2023-06-24T09:00:59;102475.47;;;25.41;52.02
67840;BME280;54636;51.684;5.142;2023-06-24T09:03:25;102487.50;;;25.64;52.39
67840;BME280;54636;51.684;5.142;2023-06-24T09:05:51;102465.66;;;25.68;49.60
67840;BME280;54636;51.684;5.142;2023-06-24T09:08:16;102458.59;;;25.67;49.80
67840;BME280;54636;51.684;5.142;2023-06-24T09:10:41;102480.63;;;25.93;53.21
67840;BME280;54636;51.684;5.142;2023-06-24T09:13:07;102469.09;;;25.89;48.61
67840;BME280;54636;51.684;5.142;2023-06-24T09:15:33;102478.63;;;26.09;50.92
67840;BME280;54636;51.684;5.142;2023-06-24T09:17:59;102461.38;;;26.11;47.42
67840;BME280;54636;51.684;5.142;2023-06-24T09:20:28;102469.94;;;26.20;46.86
67840;BME280;54636;51.684;5.142;2023-06-24T09:23:02;102467.53;;;26.17;48.93
67840;BME280;54636;51.684;5.142;2023-06-24T09:25:29;102472.03;;;26.27;48.65
67840;BME280;54636;51.684;5.142;2023-06-24T09:27:55;102470.59;;;26.34;48.25
67840;BME280;54636;51.684;5.142;2023-06-24T09:30:23;102459.44;;;26.34;47.53
67840;BME280;54636;51.684;5.142;2023-06-24T09:32:50;102457.25;;;26.48;47.90
67840;BME280;54636;51.684;5.142;2023-06-24T09:35:20;102455.94;;;26.41;47.59
67840;BME280;54636;51.684;5.142;2023-06-24T09:37:56;102462.09;;;26.55;47.91
67840;BME280;54636;51.684;5.142;2023-06-24T09:40:22;102454.84;;;26.67;47.28
67840;BME280;54636;51.684;5.142;2023-06-24T09:42:55;102455.03;;;26.69;48.24
67840;BME280;54636;51.684;5.142;2023-06-24T09:45:25;102439.06;;;26.62;46.85
67840;BME280;54636;51.684;5.142;2023-06-24T09:47:52;102446.69;;;26.54;46.90
67840;BME280;54636;51.684;5.142;2023-06-24T09:50:17;102420.13;;;26.61;48.92
67840;BME280;54636;51.684;5.142;2023-06-24T09:52:44;102442.41;;;26.83;49.69
67840;BME280;54636;51.684;5.142;2023-06-24T09:55:13;102432.00;;;26.91;49.28
67840;BME280;54636;51.684;5.142;2023-06-24T09:57:39;102444.13;;;27.02;47.99
67840;BME280;54636;51.684;5.142;2023-06-24T10:00:06;102449.31;;;27.20;49.47
67840;BME280;54636;51.684;5.142;2023-06-24T10:02:32;102443.91;;;27.22;49.37
67840;BME280;54636;51.684;5.142;2023-06-24T10:04:59;102440.00;;;27.26;49.73
67840;BME280;54636;51.684;5.142;2023-06-24T10:07:26;102444.25;;;27.34;47.80
67840;BME280;54636;51.684;5.142;2023-06-24T10:09:52;102442.56;;;27.46;50.29
67840;BME280;54636;51.684;5.142;2023-06-24T10:12:18;102443.84;;;27.53;50.26
67840;BME280;54636;51.684;5.142;2023-06-24T10:14:44;102440.31;;;27.60;50.44
67840;BME280;54636;51.684;5.142;2023-06-24T10:17:11;102442.72;;;27.64;47.76
67840;BME280;54636;51.684;5.142;2023-06-24T10:19:41;102420.56;;;27.66;49.44
67840;BME280;54636;51.684;5.142;2023-06-24T10:22:10;102426.31;;;27.75;50.27
67840;BME280;54636;51.684;5.142;2023-06-24T10:24:40;102426.63;;;27.87;50.13
67840;BME280;54636;51.684;5.142;2023-06-24T10:27:18;102418.28;;;27.79;46.79
67840;BME280;54636;51.684;5.142;2023-06-24T10:29:51;102437.44;;;27.91;48.34
67840;BME280;54636;51.684;5.142;2023-06-24T10:32:21;102431.09;;;27.90;47.80
67840;BME280;54636;51.684;5.142;2023-06-24T10:34:47;102432.69;;;28.01;47.19
67840;BME280;54636;51.684;5.142;2023-06-24T10:37:20;102438.28;;;28.01;48.94
67840;BME280;54636;51.684;5.142;2023-06-24T10:39:50;102430.63;;;28.09;47.59
67840;BME280;54636;51.684;5.142;2023-06-24T10:42:31;102435.28;;;28.06;47.36
67840;BME280;54636;51.684;5.142;2023-06-24T10:45:16;102425.19;;;28.11;46.78
67840;BME280;54636;51.684;5.142;2023-06-24T10:50:16;102431.19;;;28.07;46.78
67840;BME280;54636;51.684;5.142;2023-06-24T10:52:46;102414.97;;;28.06;45.82
67840;BME280;54636;51.684;5.142;2023-06-24T10:55:16;102419.94;;;28.23;45.40
67840;BME280;54636;51.684;5.142;2023-06-24T10:57:42;102421.63;;;28.18;43.12
67840;BME280;54636;51.684;5.142;2023-06-24T11:00:09;102419.09;;;28.05;43.42
67840;BME280;54636;51.684;5.142;2023-06-24T11:02:34;102415.50;;;28.12;45.52
67840;BME280;54636;51.684;5.142;2023-06-24T11:05:02;102419.44;;;28.09;44.30
67840;BME280;54636;51.684;5.142;2023-06-24T11:07:30;102416.03;;;28.18;43.79
67840;BME280;54636;51.684;5.142;2023-06-24T11:10:13;102410.50;;;28.10;44.08
67840;BME280;54636;51.684;5.142;2023-06-24T11:12:40;102403.56;;;28.19;44.48
67840;BME280;54636;51.684;5.142;2023-06-24T11:15:07;102405.03;;;28.20;41.78
67840;BME280;54636;51.684;5.142;2023-06-24T11:17:34;102397.78;;;28.17;40.73
67840;BME280;54636;51.684;5.142;2023-06-24T11:20:02;102387.41;;;28.10;41.82
67840;BME280;54636;51.684;5.142;2023-06-24T11:22:31;102401.91;;;28.16;40.15
67840;BME280;54636;51.684;5.142;2023-06-24T11:24:56;102384.59;;;28.10;41.61
67840;BME280;54636;51.684;5.142;2023-06-24T11:27:29;102408.28;;;28.41;44.39
67840;BME280;54636;51.684;5.142;2023-06-24T11:29:57;102399.78;;;28.57;44.49
67840;BME280;54636;51.684;5.142;2023-06-24T11:32:36;102400.44;;;28.65;42.89
67840;BME280;54636;51.684;5.142;2023-06-24T11:35:04;102378.75;;;28.56;42.86
67840;BME280;54636;51.684;5.142;2023-06-24T11:37:31;102388.53;;;28.64;42.58
67840;BME280;54636;51.684;5.142;2023-06-24T11:40:04;102385.31;;;28.68;41.58
67840;BME280;54636;51.684;5.142;2023-06-24T11:42:30;102380.94;;;28.82;41.70
67840;BME280;54636;51.684;5.142;2023-06-24T11:45:09;102384.00;;;28.94;42.61
67840;BME280;54636;51.684;5.142;2023-06-24T11:47:35;102381.03;;;28.92;42.23
67840;BME280;54636;51.684;5.142;2023-06-24T11:50:04;102367.31;;;28.86;39.69
67840;BME280;54636;51.684;5.142;2023-06-24T11:55:11;102372.66;;;28.92;42.03
67840;BME280;54636;51.684;5.142;2023-06-24T11:57:59;102381.88;;;29.02;42.49
67840;BME280;54636;51.684;5.142;2023-06-24T12:00:28;102376.03;;;28.90;39.80
67840;BME280;54636;51.684;5.142;2023-06-24T12:02:58;102368.25;;;28.81;40.11
67840;BME280;54636;51.684;5.142;2023-06-24T12:05:34;102373.50;;;28.77;41.49
67840;BME280;54636;51.684;5.142;2023-06-24T12:08:01;102367.47;;;28.88;39.86
67840;BME280;54636;51.684;5.142;2023-06-24T12:10:28;102371.09;;;28.98;39.03
67840;BME280;54636;51.684;5.142;2023-06-24T12:12:56;102361.47;;;29.09;41.31
67840;BME280;54636;51.684;5.142;2023-06-24T12:15:22;102342.63;;;28.92;38.16
67840;BME280;54636;51.684;5.142;2023-06-24T12:17:47;102362.22;;;28.92;39.08
67840;BME280;54636;51.684;5.142;2023-06-24T12:20:14;102347.59;;;28.76;37.62
67840;BME280;54636;51.684;5.142;2023-06-24T12:22:40;102361.47;;;28.92;38.27
67840;BME280;54636;51.684;5.142;2023-06-24T12:25:06;102363.44;;;28.99;40.11
67840;BME280;54636;51.684;5.142;2023-06-24T12:27:32;102364.34;;;29.01;40.02
67840;BME280;54636;51.684;5.142;2023-06-24T12:29:57;102348.72;;;28.98;40.82
67840;BME280;54636;51.684;5.142;2023-06-24T12:32:22;102359.50;;;29.02;40.08
67840;BME280;54636;51.684;5.142;2023-06-24T12:34:48;102348.81;;;29.08;40.76
67840;BME280;54636;51.684;5.142;2023-06-24T12:37:13;102325.50;;;28.88;40.28
67840;BME280;54636;51.684;5.142;2023-06-24T12:39:39;102341.00;;;29.06;39.57
67840;BME280;54636;51.684;5.142;2023-06-24T12:42:04;102351.38;;;29.13;39.96
67840;BME280;54636;51.684;5.142;2023-06-24T12:44:31;102328.81;;;29.11;41.24
67840;BME280;54636;51.684;5.142;2023-06-24T12:46:56;102322.97;;;29.00;38.14
67840;BME280;54636;51.684;5.142;2023-06-24T12:49:22;102306.09;;;28.90;39.52
67840;BME280;54636;51.684;5.142;2023-06-24T12:51:47;102330.47;;;29.14;39.69
67840;BME280;54636;51.684;5.142;2023-06-24T12:54:12;102323.47;;;29.23;40.64
67840;BME280;54636;51.684;5.142;2023-06-24T12:56:38;102332.66;;;29.33;40.16
67840;BME280;54636;51.684;5.142;2023-06-24T12:59:03;102322.16;;;29.24;38.85
67840;BME280;54636;51.684;5.142;2023-06-24T13:01:31;102324.81;;;29.32;38.29
67840;BME280;54636;51.684;5.142;2023-06-24T13:03:56;102330.09;;;29.28;38.42